This is the latest recevied weather packets stored in our database for station/object OM4MO-10. If no packets are shown the sender has not sent any weather packets the latest 10 day(s).
| Time | Temp. | Humidity | Pressure | Rain* | Wind** | Luminosity | Snow |
|---|---|---|---|---|---|---|---|
| 1788401576 | 15° C | 79% | 1022.1 hPa | - | - | - | - |
| 1788400676 | 15° C | 79% | 1021.8 hPa | - | - | - | - |
| 1788399776 | 15.56° C | 79% | 1022.2 hPa | - | - | - | - |
| 1788398876 | 15° C | 79% | 1018.6 hPa | - | - | - | - |
| 1788397974 | 13.89° C | 79% | 1021.9 hPa | - | - | - | - |
| 1788397074 | 21.67° C | 79% | 754.7 hPa | - | - | - | - |
| 1788396173 | 13.33° C | 79% | 1021.2 hPa | - | - | - | - |
| 1788395273 | 13.33° C | 79% | 1021.2 hPa | - | - | - | - |
| 1788394373 | 13.33° C | 79% | 1021.5 hPa | - | - | - | - |
| 1788393473 | 12.78° C | 79% | 1021.4 hPa | - | - | - | - |
| 1788392573 | 12.78° C | 79% | 1021.5 hPa | - | - | - | - |
| 1788391672 | 13.33° C | 79% | 1021.4 hPa | - | - | - | - |
| 1788390772 | 13.33° C | 79% | 1021.4 hPa | - | - | - | - |
| 1788389872 | 21.67° C | 79% | 754.7 hPa | - | - | - | - |
| 1788388971 | 13.89° C | 79% | 1022.2 hPa | - | - | - | - |
| 1788388071 | 13.33° C | 79% | 1022.3 hPa | - | - | - | - |
| 1788387170 | 21.67° C | 79% | 754.7 hPa | - | - | - | - |
| 1788386269 | 21.67° C | 79% | 754.7 hPa | - | - | - | - |
| 1788385368 | 12.78° C | 79% | 1021.6 hPa | - | - | - | - |
| 1788384468 | 21.67° C | 79% | 754.7 hPa | - | - | - | - |
| 1788383567 | 12.78° C | 79% | 1021.1 hPa | - | - | - | - |
| 1788382666 | 21.67° C | 79% | 754.7 hPa | - | - | - | - |
| 1788381765 | 21.67° C | 79% | 754.7 hPa | - | - | - | - |
| 1788380864 | 21.67° C | 79% | 754.7 hPa | - | - | - | - |
| 1788379963 | 21.67° C | 79% | 754.7 hPa | - | - | - | - |
* Rain since midnight (hover to see other rain measurements)
** Current wind speed in m/s (hover to see current wind gust speed)